Time,TemperatureF,DewpointF,PressureIn,WindDirection,WindDirectionDegrees,WindSpeedMPH,WindSpeedGustMPH,Humidity,HourlyPrecipIn,Conditions,Clouds,dailyrainin,SoftwareType,DateUTC
2013-10-27 00:02:00,-999.0,-99.9,29.90,East,96,1.0,4.0,-999,-99.99,,,-99.99,,2013-10-27 04:02:00,
2013-10-27 00:24:00,51.0,36.0,29.90,SSW,197,1.0,4.0,56,0.00,,,-99.99,,2013-10-27 04:24:00,
2013-10-27 00:34:00,51.0,36.0,29.90,SSW,197,1.0,4.0,56,0.00,,,-99.99,,2013-10-27 04:34:00,
2013-10-27 00:54:00,49.0,39.0,29.89,South,177,1.0,4.0,67,0.00,,,-99.99,,2013-10-27 04:54:00,
2013-10-27 01:23:00,49.0,39.0,29.88,SSE,160,1.0,7.0,68,0.00,,,-99.99,,2013-10-27 05:23:00,
2013-10-27 01:52:00,48.0,38.0,29.88,ESE,115,1.0,4.0,68,0.00,,,-99.99,,2013-10-27 05:52:00,
2013-10-27 02:01:00,48.0,38.0,29.88,ESE,115,1.0,4.0,68,0.00,,,-99.99,,2013-10-27 06:01:00,
2013-10-27 02:13:00,48.0,38.0,29.88,ESE,115,1.0,4.0,68,0.00,,,-99.99,,2013-10-27 06:13:00,
2013-10-27 02:42:00,48.0,38.0,29.86,ESE,122,2.0,7.0,68,0.00,,,-99.99,,2013-10-27 06:42:00,
2013-10-27 02:53:00,48.0,38.0,29.86,South,191,2.0,5.0,67,0.00,,,-99.99,,2013-10-27 06:53:00,
2013-10-27 03:12:00,47.0,37.0,29.85,WSW,241,2.0,11.0,67,0.00,,,-99.99,,2013-10-27 07:12:00,
2013-10-27 03:22:00,48.0,36.0,29.85,West,276,1.0,8.0,64,0.00,,,-99.99,,2013-10-27 07:22:00,
2013-10-27 03:32:00,48.0,36.0,29.85,West,276,1.0,8.0,64,0.00,,,-99.99,,2013-10-27 07:32:00,
2013-10-27 03:52:00,48.0,36.0,29.85,East,96,1.0,4.0,64,0.00,,,-99.99,,2013-10-27 07:52:00,
2013-10-27 04:22:00,46.0,36.0,29.84,NW,311,0.0,4.0,67,0.00,,,-99.99,,2013-10-27 08:22:00,
2013-10-27 04:32:00,46.0,36.0,29.84,NW,311,0.0,4.0,67,0.00,,,-99.99,,2013-10-27 08:32:00,
2013-10-27 04:52:00,46.0,36.0,29.84,NW,311,0.0,4.0,67,0.00,,,-99.99,,2013-10-27 08:52:00,
2013-10-27 05:12:00,46.0,36.0,29.84,NW,311,0.0,4.0,67,0.00,,,-99.99,,2013-10-27 09:12:00,
2013-10-27 05:21:00,46.0,36.0,29.84,NW,311,0.0,4.0,67,0.00,,,-99.99,,2013-10-27 09:21:00,
2013-10-27 05:54:00,46.0,36.0,29.85,NW,311,0.0,4.0,67,0.00,,,-99.99,,2013-10-27 09:54:00,
2013-10-27 06:03:00,46.0,36.0,29.85,NW,311,0.0,4.0,67,0.00,,,-99.99,,2013-10-27 10:03:00,
2013-10-27 06:12:00,46.0,36.0,29.85,NW,311,0.0,4.0,67,0.00,,,-99.99,,2013-10-27 10:12:00,
2013-10-27 06:23:00,46.0,36.0,29.84,NW,311,0.0,4.0,67,0.00,,,-99.99,,2013-10-27 10:23:00,
2013-10-27 06:53:00,46.0,36.0,29.85,NW,311,0.0,4.0,67,0.00,,,-99.99,,2013-10-27 10:53:00,
2013-10-27 07:22:00,46.0,36.0,29.86,NW,311,0.0,4.0,67,0.00,,,-99.99,,2013-10-27 11:22:00,
2013-10-27 07:52:00,46.0,36.0,29.87,NW,311,0.0,4.0,67,0.00,,,-99.99,,2013-10-27 11:52:00,
2013-10-27 08:22:00,46.0,36.0,29.88,NW,311,0.0,4.0,67,0.00,,,-99.99,,2013-10-27 12:22:00,
2013-10-27 08:32:00,46.0,36.0,29.88,NW,311,0.0,4.0,67,0.00,,,-99.99,,2013-10-27 12:32:00,
2013-10-27 08:52:00,45.0,35.0,29.89,West,260,0.0,3.0,68,0.00,,,-99.99,,2013-10-27 12:52:00,
2013-10-27 09:22:00,46.0,36.0,29.91,West,262,1.0,3.0,67,0.00,,,-99.99,,2013-10-27 13:22:00,
2013-10-27 09:32:00,46.0,36.0,29.91,West,262,1.0,3.0,67,0.00,,,-99.99,,2013-10-27 13:32:00,
2013-10-27 09:52:00,47.0,36.0,29.91,NNE,25,2.0,7.0,65,0.00,,,-99.99,,2013-10-27 13:52:00,
2013-10-27 10:11:00,48.0,36.0,29.91,WSW,255,2.0,7.0,64,0.00,,,-99.99,,2013-10-27 14:11:00,
2013-10-27 10:22:00,48.0,36.0,29.91,WSW,255,2.0,7.0,64,0.00,,,-99.99,,2013-10-27 14:22:00,
2013-10-27 10:52:00,50.0,37.0,29.91,North,358,1.0,5.0,61,0.00,,,-99.99,,2013-10-27 14:52:00,
2013-10-27 11:22:00,50.0,36.0,29.92,North,354,2.0,6.0,59,0.00,,,-99.99,,2013-10-27 15:22:00,
2013-10-27 11:23:00,52.0,37.0,29.93,West,271,1.0,4.0,56,0.00,,,-99.99,,2013-10-27 15:23:00,
2013-10-27 11:54:00,52.0,37.0,29.93,West,271,1.0,4.0,56,0.00,,,-99.99,,2013-10-27 15:54:00,
2013-10-27 12:04:00,52.0,37.0,29.93,West,271,1.0,4.0,56,0.00,,,-99.99,,2013-10-27 16:04:00,
2013-10-27 12:13:00,52.0,37.0,29.93,West,271,1.0,4.0,56,0.00,,,-99.99,,2013-10-27 16:13:00,
2013-10-27 12:43:00,54.0,37.0,29.92,WSW,248,2.0,7.0,53,0.00,,,-99.99,,2013-10-27 16:43:00,
2013-10-27 12:54:00,54.0,37.0,29.91,East,90,2.0,6.0,52,0.00,,,-99.99,,2013-10-27 16:54:00,
2013-10-27 13:13:00,55.0,36.0,29.90,North,356,2.0,6.0,48,0.00,,,-99.99,,2013-10-27 17:13:00,
2013-10-27 13:22:00,55.0,36.0,29.90,North,356,2.0,6.0,48,0.00,,,-99.99,,2013-10-27 17:22:00,
2013-10-27 13:53:00,55.0,36.0,29.89,WNW,302,2.0,5.0,49,0.00,,,-99.99,,2013-10-27 17:53:00,
2013-10-27 14:12:00,55.0,36.0,29.89,NNW,343,2.0,7.0,48,0.00,,,-99.99,,2013-10-27 18:12:00,
2013-10-27 14:22:00,55.0,36.0,29.89,NNW,343,2.0,7.0,48,0.00,,,-99.99,,2013-10-27 18:22:00,
2013-10-27 14:43:00,55.0,35.0,29.88,NNE,30,2.0,6.0,46,0.00,,,-99.99,,2013-10-27 18:43:00,
2013-10-27 14:53:00,55.0,35.0,29.88,SW,236,3.0,8.0,46,0.00,,,-99.99,,2013-10-27 18:53:00,
2013-10-27 15:22:00,56.0,34.0,29.89,NE,48,3.0,6.0,43,0.00,,,-99.99,,2013-10-27 19:22:00,
2013-10-27 15:42:00,56.0,34.0,29.89,NE,53,3.0,10.0,43,0.00,,,-99.99,,2013-10-27 19:42:00,
2013-10-27 15:52:00,55.0,32.0,29.89,NE,56,2.0,7.0,41,0.00,,,-99.99,,2013-10-27 19:52:00,
2013-10-27 16:02:00,55.0,32.0,29.89,NE,56,2.0,7.0,41,0.00,,,-99.99,,2013-10-27 20:02:00,
2013-10-27 16:22:00,55.0,31.0,29.90,West,278,2.0,6.0,40,0.00,,,-99.99,,2013-10-27 20:22:00,
2013-10-27 16:52:00,54.0,30.0,29.92,WSW,256,3.0,7.0,40,0.00,,,-99.99,,2013-10-27 20:52:00,
2013-10-27 17:22:00,53.0,30.0,29.92,West,279,2.0,8.0,41,0.00,,,-99.99,,2013-10-27 21:22:00,
2013-10-27 17:34:00,53.0,30.0,29.92,West,279,2.0,8.0,41,0.00,,,-99.99,,2013-10-27 21:34:00,
2013-10-27 17:43:00,53.0,30.0,29.92,West,279,2.0,8.0,41,0.00,,,-99.99,,2013-10-27 21:43:00,
2013-10-27 17:54:00,53.0,29.0,29.94,West,272,3.0,8.0,40,0.00,,,-99.99,,2013-10-27 21:54:00,
2013-10-27 18:24:00,51.0,29.0,29.96,West,269,1.0,2.0,43,0.00,,,-99.99,,2013-10-27 22:24:00,
2013-10-27 18:33:00,51.0,29.0,29.96,West,269,1.0,2.0,43,0.00,,,-99.99,,2013-10-27 22:33:00,
2013-10-27 18:43:00,51.0,29.0,29.96,West,269,1.0,2.0,43,0.00,,,-99.99,,2013-10-27 22:43:00,
2013-10-27 18:54:00,50.0,30.0,29.98,East,95,1.0,3.0,46,0.00,,,-99.99,,2013-10-27 22:54:00,
2013-10-27 19:12:00,50.0,31.0,29.98,ESE,114,0.0,1.0,47,0.00,,,-99.99,,2013-10-27 23:12:00,
2013-10-27 19:22:00,49.0,31.0,29.99,WNW,302,0.0,2.0,49,0.00,,,-99.99,,2013-10-27 23:22:00,
2013-10-27 19:52:00,47.0,31.0,30.01,East,87,0.0,1.0,53,0.00,,,-99.99,,2013-10-27 23:52:00,
2013-10-27 20:11:00,46.0,31.0,30.01,East,87,1.0,2.0,55,0.00,,,-99.99,,2013-10-28 00:11:00,
2013-10-27 20:22:00,46.0,31.0,30.01,West,281,1.0,2.0,55,0.00,,,-99.99,,2013-10-28 00:22:00,
2013-10-27 20:43:00,46.0,30.0,30.02,West,279,1.0,2.0,54,0.00,,,-99.99,,2013-10-28 00:43:00,
2013-10-27 20:52:00,46.0,30.0,30.02,West,279,1.0,2.0,54,0.00,,,-99.99,,2013-10-28 00:52:00,
2013-10-27 21:22:00,45.0,30.0,30.03,West,281,2.0,3.0,56,0.00,,,-99.99,,2013-10-28 01:22:00,
2013-10-27 21:52:00,45.0,31.0,30.04,West,281,1.0,1.0,57,0.00,,,-99.99,,2013-10-28 01:52:00,
2013-10-27 22:02:00,45.0,31.0,30.04,West,281,1.0,1.0,57,0.00,,,-99.99,,2013-10-28 02:02:00,
2013-10-27 22:12:00,45.0,31.0,30.04,West,281,1.0,1.0,57,0.00,,,-99.99,,2013-10-28 02:12:00,
2013-10-27 22:42:00,43.0,30.0,30.07,West,281,1.0,2.0,60,0.00,,,-99.99,,2013-10-28 02:42:00,
2013-10-27 22:53:00,44.0,30.0,30.07,West,281,1.0,1.0,58,0.00,,,-99.99,,2013-10-28 02:53:00,
2013-10-27 23:11:00,42.0,30.0,30.08,West,278,0.0,0.0,62,0.00,,,-99.99,,2013-10-28 03:11:00,
2013-10-27 23:22:00,42.0,30.0,30.08,West,278,0.0,0.0,62,0.00,,,-99.99,,2013-10-28 03:22:00,
2013-10-27 23:44:00,41.0,31.0,30.09,West,277,0.0,0.0,68,0.00,,,-99.99,,2013-10-28 03:44:00,
2013-10-27 23:54:00,41.0,31.0,30.09,West,277,0.0,0.0,68,0.00,,,-99.99,,2013-10-28 03:54:00,